sensor_id;sensor_type;location;lat;lon;timestamp;temperature;humidity
30174;DHT22;16985;50.814;8.530;2023-04-30T00:00:16;8.10;99.90
30174;DHT22;16985;50.814;8.530;2023-04-30T00:02:42;8.10;99.90
30174;DHT22;16985;50.814;8.530;2023-04-30T00:05:08;8.00;99.90
30174;DHT22;16985;50.814;8.530;2023-04-30T00:07:34;8.00;99.90
30174;DHT22;16985;50.814;8.530;2023-04-30T00:10:00;7.90;99.90
30174;DHT22;16985;50.814;8.530;2023-04-30T00:12:26;7.90;99.90
30174;DHT22;16985;50.814;8.530;2023-04-30T00:14:52;7.80;99.90
30174;DHT22;16985;50.814;8.530;2023-04-30T00:17:19;7.80;99.90
30174;DHT22;16985;50.814;8.530;2023-04-30T00:19:45;7.70;99.90
30174;DHT22;16985;50.814;8.530;2023-04-30T00:22:11;7.70;99.90
30174;DHT22;16985;50.814;8.530;2023-04-30T00:24:36;7.70;99.90
30174;DHT22;16985;50.814;8.530;2023-04-30T00:27:02;7.70;99.90
30174;DHT22;16985;50.814;8.530;2023-04-30T00:29:28;7.70;99.90
30174;DHT22;16985;50.814;8.530;2023-04-30T00:31:54;7.60;99.90
30174;DHT22;16985;50.814;8.530;2023-04-30T00:34:20;7.60;99.90
30174;DHT22;16985;50.814;8.530;2023-04-30T00:36:45;7.50;99.90
30174;DHT22;16985;50.814;8.530;2023-04-30T00:39:11;7.40;99.90
30174;DHT22;16985;50.814;8.530;2023-04-30T00:41:37;7.40;99.90
30174;DHT22;16985;50.814;8.530;2023-04-30T00:44:04;7.40;99.90
30174;DHT22;16985;50.814;8.530;2023-04-30T00:46:31;7.40;99.90
30174;DHT22;16985;50.814;8.530;2023-04-30T00:48:56;7.30;99.90
30174;DHT22;16985;50.814;8.530;2023-04-30T00:51:22;7.30;99.90
30174;DHT22;16985;50.814;8.530;2023-04-30T00:53:48;7.20;99.90
30174;DHT22;16985;50.814;8.530;2023-04-30T00:56:14;7.20;99.90
30174;DHT22;16985;50.814;8.530;2023-04-30T00:58:42;7.20;99.90
30174;DHT22;16985;50.814;8.530;2023-04-30T01:01:24;7.10;99.90
30174;DHT22;16985;50.814;8.530;2023-04-30T01:03:51;7.10;99.90
30174;DHT22;16985;50.814;8.530;2023-04-30T01:06:17;7.00;99.90
30174;DHT22;16985;50.814;8.530;2023-04-30T01:08:43;7.00;99.90
30174;DHT22;16985;50.814;8.530;2023-04-30T01:11:32;7.00;99.90
30174;DHT22;16985;50.814;8.530;2023-04-30T01:17:33;7.00;99.90
30174;DHT22;16985;50.814;8.530;2023-04-30T01:20:04;6.90;99.90
30174;DHT22;16985;50.814;8.530;2023-04-30T01:26:01;6.90;99.90
30174;DHT22;16985;50.814;8.530;2023-04-30T01:29:07;6.80;99.90
30174;DHT22;16985;50.814;8.530;2023-04-30T01:31:34;6.80;99.90
30174;DHT22;16985;50.814;8.530;2023-04-30T01:34:00;6.80;99.90
30174;DHT22;16985;50.814;8.530;2023-04-30T01:36:57;6.70;99.90
30174;DHT22;16985;50.814;8.530;2023-04-30T01:42:16;6.70;99.90
30174;DHT22;16985;50.814;8.530;2023-04-30T01:48:05;6.50;99.90
30174;DHT22;16985;50.814;8.530;2023-04-30T01:50:43;6.50;99.90
30174;DHT22;16985;50.814;8.530;2023-04-30T01:53:30;6.40;99.90
30174;DHT22;16985;50.814;8.530;2023-04-30T01:56:02;6.40;99.90
30174;DHT22;16985;50.814;8.530;2023-04-30T01:58:29;6.40;99.90
30174;DHT22;16985;50.814;8.530;2023-04-30T02:00:56;6.30;99.90
30174;DHT22;16985;50.814;8.530;2023-04-30T02:03:22;6.20;99.90
30174;DHT22;16985;50.814;8.530;2023-04-30T02:05:49;6.20;99.90
30174;DHT22;16985;50.814;8.530;2023-04-30T02:08:34;6.20;99.90
30174;DHT22;16985;50.814;8.530;2023-04-30T02:11:00;6.20;99.90
30174;DHT22;16985;50.814;8.530;2023-04-30T02:13:25;6.10;99.90
30174;DHT22;16985;50.814;8.530;2023-04-30T02:15:51;6.10;99.90
30174;DHT22;16985;50.814;8.530;2023-04-30T02:18:17;6.10;99.90
30174;DHT22;16985;50.814;8.530;2023-04-30T02:20:43;6.10;99.90
30174;DHT22;16985;50.814;8.530;2023-04-30T02:23:08;6.10;99.90
30174;DHT22;16985;50.814;8.530;2023-04-30T02:25:34;6.00;99.90
30174;DHT22;16985;50.814;8.530;2023-04-30T02:28:02;6.00;99.90
30174;DHT22;16985;50.814;8.530;2023-04-30T02:30:28;6.00;99.90
30174;DHT22;16985;50.814;8.530;2023-04-30T02:32:55;6.00;99.90
30174;DHT22;16985;50.814;8.530;2023-04-30T02:35:23;6.00;99.90
30174;DHT22;16985;50.814;8.530;2023-04-30T02:37:49;6.00;99.90
30174;DHT22;16985;50.814;8.530;2023-04-30T02:40:16;5.90;99.90
30174;DHT22;16985;50.814;8.530;2023-04-30T02:42:41;5.90;99.90
30174;DHT22;16985;50.814;8.530;2023-04-30T02:45:07;5.90;99.90
30174;DHT22;16985;50.814;8.530;2023-04-30T02:47:33;5.90;99.90
30174;DHT22;16985;50.814;8.530;2023-04-30T02:49:59;5.90;99.90
30174;DHT22;16985;50.814;8.530;2023-04-30T02:52:25;5.90;99.90
30174;DHT22;16985;50.814;8.530;2023-04-30T02:54:51;5.90;99.90
30174;DHT22;16985;50.814;8.530;2023-04-30T02:57:17;5.80;99.90
30174;DHT22;16985;50.814;8.530;2023-04-30T02:59:43;5.80;99.90
30174;DHT22;16985;50.814;8.530;2023-04-30T03:02:10;5.80;99.90
30174;DHT22;16985;50.814;8.530;2023-04-30T03:04:37;5.80;99.90
30174;DHT22;16985;50.814;8.530;2023-04-30T03:07:19;5.80;99.90
30174;DHT22;16985;50.814;8.530;2023-04-30T03:09:45;5.80;99.90
30174;DHT22;16985;50.814;8.530;2023-04-30T03:12:11;5.80;99.90
30174;DHT22;16985;50.814;8.530;2023-04-30T03:14:36;5.80;99.90
30174;DHT22;16985;50.814;8.530;2023-04-30T03:17:02;5.80;99.90
30174;DHT22;16985;50.814;8.530;2023-04-30T03:19:28;5.80;99.90
30174;DHT22;16985;50.814;8.530;2023-04-30T03:21:54;5.80;99.90
30174;DHT22;16985;50.814;8.530;2023-04-30T03:24:20;5.70;99.90
30174;DHT22;16985;50.814;8.530;2023-04-30T03:26:46;5.80;99.90
30174;DHT22;16985;50.814;8.530;2023-04-30T03:29:12;5.70;99.90
30174;DHT22;16985;50.814;8.530;2023-04-30T03:31:52;5.70;99.90
30174;DHT22;16985;50.814;8.530;2023-04-30T03:34:18;5.70;99.90
30174;DHT22;16985;50.814;8.530;2023-04-30T03:36:43;5.70;99.90
30174;DHT22;16985;50.814;8.530;2023-04-30T03:39:09;5.80;99.90
30174;DHT22;16985;50.814;8.530;2023-04-30T03:41:35;5.70;99.90
30174;DHT22;16985;50.814;8.530;2023-04-30T03:44:01;5.70;99.90
30174;DHT22;16985;50.814;8.530;2023-04-30T03:46:27;5.70;99.90
30174;DHT22;16985;50.814;8.530;2023-04-30T03:48:53;5.70;99.90
30174;DHT22;16985;50.814;8.530;2023-04-30T03:51:19;5.60;99.90
30174;DHT22;16985;50.814;8.530;2023-04-30T03:53:46;5.60;99.90
30174;DHT22;16985;50.814;8.530;2023-04-30T03:56:26;5.60;99.90
30174;DHT22;16985;50.814;8.530;2023-04-30T03:58:52;5.50;99.90
30174;DHT22;16985;50.814;8.530;2023-04-30T04:01:18;5.40;99.90
30174;DHT22;16985;50.814;8.530;2023-04-30T04:03:44;5.40;99.90
30174;DHT22;16985;50.814;8.530;2023-04-30T04:06:09;5.40;99.90
30174;DHT22;16985;50.814;8.530;2023-04-30T04:08:35;5.30;99.90
30174;DHT22;16985;50.814;8.530;2023-04-30T04:11:01;5.30;99.90
30174;DHT22;16985;50.814;8.530;2023-04-30T04:13:27;5.20;99.90
30174;DHT22;16985;50.814;8.530;2023-04-30T04:15:53;5.20;99.90
30174;DHT22;16985;50.814;8.530;2023-04-30T04:18:20;5.10;99.90
30174;DHT22;16985;50.814;8.530;2023-04-30T04:21:00;5.10;99.90
30174;DHT22;16985;50.814;8.530;2023-04-30T04:23:27;5.10;99.90
30174;DHT22;16985;50.814;8.530;2023-04-30T04:25:53;5.10;99.90
30174;DHT22;16985;50.814;8.530;2023-04-30T04:28:19;5.10;99.90
30174;DHT22;16985;50.814;8.530;2023-04-30T04:30:46;5.10;99.90
30174;DHT22;16985;50.814;8.530;2023-04-30T04:33:12;5.10;99.90
30174;DHT22;16985;50.814;8.530;2023-04-30T04:35:37;5.10;99.90
30174;DHT22;16985;50.814;8.530;2023-04-30T04:38:04;5.10;99.90
30174;DHT22;16985;50.814;8.530;2023-04-30T04:40:30;5.10;99.90
30174;DHT22;16985;50.814;8.530;2023-04-30T04:42:56;5.00;99.90
30174;DHT22;16985;50.814;8.530;2023-04-30T04:45:22;5.00;99.90
30174;DHT22;16985;50.814;8.530;2023-04-30T04:47:49;4.90;99.90
30174;DHT22;16985;50.814;8.530;2023-04-30T04:50:15;4.90;99.90
30174;DHT22;16985;50.814;8.530;2023-04-30T04:52:41;4.90;99.90
30174;DHT22;16985;50.814;8.530;2023-04-30T04:55:08;4.90;99.90
30174;DHT22;16985;50.814;8.530;2023-04-30T04:57:35;4.90;99.90
30174;DHT22;16985;50.814;8.530;2023-04-30T05:00:01;4.90;99.90
30174;DHT22;16985;50.814;8.530;2023-04-30T05:02:27;4.80;99.90
30174;DHT22;16985;50.814;8.530;2023-04-30T05:04:52;4.90;99.90
30174;DHT22;16985;50.814;8.530;2023-04-30T05:07:18;4.90;99.90
30174;DHT22;16985;50.814;8.530;2023-04-30T05:09:45;4.90;99.90
30174;DHT22;16985;50.814;8.530;2023-04-30T05:12:14;4.90;99.90
30174;DHT22;16985;50.814;8.530;2023-04-30T05:14:40;4.90;99.90
30174;DHT22;16985;50.814;8.530;2023-04-30T05:17:07;4.90;99.90
30174;DHT22;16985;50.814;8.530;2023-04-30T05:19:33;4.90;99.90
30174;DHT22;16985;50.814;8.530;2023-04-30T05:21:58;5.00;99.90
30174;DHT22;16985;50.814;8.530;2023-04-30T05:24:40;5.00;99.90
30174;DHT22;16985;50.814;8.530;2023-04-30T05:27:07;5.00;99.90
30174;DHT22;16985;50.814;8.530;2023-04-30T05:29:33;5.10;99.90
30174;DHT22;16985;50.814;8.530;2023-04-30T05:31:58;5.10;99.90
30174;DHT22;16985;50.814;8.530;2023-04-30T05:34:25;5.10;99.90
30174;DHT22;16985;50.814;8.530;2023-04-30T05:36:51;5.20;99.90
30174;DHT22;16985;50.814;8.530;2023-04-30T05:39:17;5.20;99.90
30174;DHT22;16985;50.814;8.530;2023-04-30T05:41:43;5.20;99.90
30174;DHT22;16985;50.814;8.530;2023-04-30T05:44:09;5.30;99.90
30174;DHT22;16985;50.814;8.530;2023-04-30T05:46:35;5.30;99.90
30174;DHT22;16985;50.814;8.530;2023-04-30T05:49:01;5.30;99.90
30174;DHT22;16985;50.814;8.530;2023-04-30T05:51:27;5.40;99.90
30174;DHT22;16985;50.814;8.530;2023-04-30T05:53:53;5.40;99.90
30174;DHT22;16985;50.814;8.530;2023-04-30T05:56:19;5.40;99.90
30174;DHT22;16985;50.814;8.530;2023-04-30T05:58:45;5.50;99.90
30174;DHT22;16985;50.814;8.530;2023-04-30T06:01:11;5.50;99.90
30174;DHT22;16985;50.814;8.530;2023-04-30T06:03:37;5.60;99.90
30174;DHT22;16985;50.814;8.530;2023-04-30T06:06:03;5.70;99.90
30174;DHT22;16985;50.814;8.530;2023-04-30T06:08:29;5.70;99.90
30174;DHT22;16985;50.814;8.530;2023-04-30T06:10:55;5.80;99.90
30174;DHT22;16985;50.814;8.530;2023-04-30T06:13:21;5.90;99.90
30174;DHT22;16985;50.814;8.530;2023-04-30T06:15:47;5.90;99.90
30174;DHT22;16985;50.814;8.530;2023-04-30T06:18:13;6.00;99.90
30174;DHT22;16985;50.814;8.530;2023-04-30T06:20:39;6.00;99.90
30174;DHT22;16985;50.814;8.530;2023-04-30T06:23:05;6.00;99.90
30174;DHT22;16985;50.814;8.530;2023-04-30T06:25:31;6.20;99.90
30174;DHT22;16985;50.814;8.530;2023-04-30T06:27:56;6.20;99.90
30174;DHT22;16985;50.814;8.530;2023-04-30T06:30:22;6.30;99.90
30174;DHT22;16985;50.814;8.530;2023-04-30T06:32:48;6.30;99.90
30174;DHT22;16985;50.814;8.530;2023-04-30T06:35:14;6.50;99.90
30174;DHT22;16985;50.814;8.530;2023-04-30T06:37:39;6.50;99.90
30174;DHT22;16985;50.814;8.530;2023-04-30T06:40:08;6.60;99.90
30174;DHT22;16985;50.814;8.530;2023-04-30T06:42:34;6.70;99.90
30174;DHT22;16985;50.814;8.530;2023-04-30T06:45:01;6.80;99.90
30174;DHT22;16985;50.814;8.530;2023-04-30T06:47:29;6.80;99.90
30174;DHT22;16985;50.814;8.530;2023-04-30T06:49:59;7.00;99.90
30174;DHT22;16985;50.814;8.530;2023-04-30T06:52:25;7.00;99.90
30174;DHT22;16985;50.814;8.530;2023-04-30T06:54:51;7.10;99.90
30174;DHT22;16985;50.814;8.530;2023-04-30T06:57:17;7.30;99.90
30174;DHT22;16985;50.814;8.530;2023-04-30T06:59:43;7.30;99.90
30174;DHT22;16985;50.814;8.530;2023-04-30T07:02:09;7.40;99.90
30174;DHT22;16985;50.814;8.530;2023-04-30T07:04:35;7.50;99.90
30174;DHT22;16985;50.814;8.530;2023-04-30T07:07:03;7.50;99.90
30174;DHT22;16985;50.814;8.530;2023-04-30T07:09:44;7.60;99.90
30174;DHT22;16985;50.814;8.530;2023-04-30T07:12:10;7.60;99.90
30174;DHT22;16985;50.814;8.530;2023-04-30T07:14:52;7.70;99.90
30174;DHT22;16985;50.814;8.530;2023-04-30T07:17:18;7.70;99.90
30174;DHT22;16985;50.814;8.530;2023-04-30T07:19:44;7.70;99.90
30174;DHT22;16985;50.814;8.530;2023-04-30T07:22:10;7.80;99.90
30174;DHT22;16985;50.814;8.530;2023-04-30T07:24:35;7.90;99.90
30174;DHT22;16985;50.814;8.530;2023-04-30T07:27:01;7.90;99.90
30174;DHT22;16985;50.814;8.530;2023-04-30T07:29:28;8.00;99.90
30174;DHT22;16985;50.814;8.530;2023-04-30T07:31:54;8.10;99.90
30174;DHT22;16985;50.814;8.530;2023-04-30T07:34:23;8.10;99.90
30174;DHT22;16985;50.814;8.530;2023-04-30T07:36:49;8.20;99.90
30174;DHT22;16985;50.814;8.530;2023-04-30T07:39:16;8.20;99.90
30174;DHT22;16985;50.814;8.530;2023-04-30T07:41:42;8.30;99.90
30174;DHT22;16985;50.814;8.530;2023-04-30T07:44:08;8.40;99.90
30174;DHT22;16985;50.814;8.530;2023-04-30T07:46:33;8.50;99.90
30174;DHT22;16985;50.814;8.530;2023-04-30T07:49:00;8.60;99.90
30174;DHT22;16985;50.814;8.530;2023-04-30T07:51:26;8.70;99.90
30174;DHT22;16985;50.814;8.530;2023-04-30T07:53:53;8.80;99.90
30174;DHT22;16985;50.814;8.530;2023-04-30T07:56:19;8.80;99.90
30174;DHT22;16985;50.814;8.530;2023-04-30T07:58:46;9.00;99.90
30174;DHT22;16985;50.814;8.530;2023-04-30T08:01:12;9.00;99.90
30174;DHT22;16985;50.814;8.530;2023-04-30T08:03:37;9.10;99.90
30174;DHT22;16985;50.814;8.530;2023-04-30T08:06:04;9.20;99.90
30174;DHT22;16985;50.814;8.530;2023-04-30T08:08:31;9.30;99.90
30174;DHT22;16985;50.814;8.530;2023-04-30T08:10:57;9.40;99.90
30174;DHT22;16985;50.814;8.530;2023-04-30T08:13:30;9.50;99.90
30174;DHT22;16985;50.814;8.530;2023-04-30T08:15:55;9.60;99.90
30174;DHT22;16985;50.814;8.530;2023-04-30T08:18:21;9.70;99.90
30174;DHT22;16985;50.814;8.530;2023-04-30T08:20:47;9.80;99.90
30174;DHT22;16985;50.814;8.530;2023-04-30T08:23:13;9.90;99.90
30174;DHT22;16985;50.814;8.530;2023-04-30T08:25:40;9.90;99.90
30174;DHT22;16985;50.814;8.530;2023-04-30T08:28:05;10.00;99.90
30174;DHT22;16985;50.814;8.530;2023-04-30T08:30:31;10.10;99.90
30174;DHT22;16985;50.814;8.530;2023-04-30T08:32:57;10.20;99.90
30174;DHT22;16985;50.814;8.530;2023-04-30T08:35:23;10.30;99.90
30174;DHT22;16985;50.814;8.530;2023-04-30T08:37:49;10.40;99.90
30174;DHT22;16985;50.814;8.530;2023-04-30T08:40:15;10.50;99.90
30174;DHT22;16985;50.814;8.530;2023-04-30T08:42:48;10.60;99.90
30174;DHT22;16985;50.814;8.530;2023-04-30T08:45:15;10.70;99.90
30174;DHT22;16985;50.814;8.530;2023-04-30T08:47:41;10.80;99.90
30174;DHT22;16985;50.814;8.530;2023-04-30T08:50:07;10.90;99.90
30174;DHT22;16985;50.814;8.530;2023-04-30T08:52:34;11.00;99.90
30174;DHT22;16985;50.814;8.530;2023-04-30T08:55:02;11.10;99.90
30174;DHT22;16985;50.814;8.530;2023-04-30T08:57:32;11.20;99.90
30174;DHT22;16985;50.814;8.530;2023-04-30T08:59:57;11.30;99.90
30174;DHT22;16985;50.814;8.530;2023-04-30T09:02:24;11.40;99.90
30174;DHT22;16985;50.814;8.530;2023-04-30T09:04:51;11.50;99.90
30174;DHT22;16985;50.814;8.530;2023-04-30T09:07:17;11.70;99.90
30174;DHT22;16985;50.814;8.530;2023-04-30T09:09:43;11.80;99.90
30174;DHT22;16985;50.814;8.530;2023-04-30T09:12:14;11.90;99.90
30174;DHT22;16985;50.814;8.530;2023-04-30T09:15:11;12.00;99.90
30174;DHT22;16985;50.814;8.530;2023-04-30T09:17:38;12.10;99.90
30174;DHT22;16985;50.814;8.530;2023-04-30T09:20:11;12.30;99.90
30174;DHT22;16985;50.814;8.530;2023-04-30T09:22:40;12.40;99.90
30174;DHT22;16985;50.814;8.530;2023-04-30T09:25:07;12.40;99.90
30174;DHT22;16985;50.814;8.530;2023-04-30T09:27:34;12.60;99.70
30174;DHT22;16985;50.814;8.530;2023-04-30T09:30:00;12.70;99.50
30174;DHT22;16985;50.814;8.530;2023-04-30T09:32:26;12.80;99.90
30174;DHT22;16985;50.814;8.530;2023-04-30T09:34:52;13.00;99.20
30174;DHT22;16985;50.814;8.530;2023-04-30T09:37:35;13.10;98.80
30174;DHT22;16985;50.814;8.530;2023-04-30T09:40:02;13.20;99.00
30174;DHT22;16985;50.814;8.530;2023-04-30T09:42:28;13.30;98.10
30174;DHT22;16985;50.814;8.530;2023-04-30T09:44:55;13.40;96.80
30174;DHT22;16985;50.814;8.530;2023-04-30T09:47:22;13.50;95.70
30174;DHT22;16985;50.814;8.530;2023-04-30T09:49:49;13.60;95.40
30174;DHT22;16985;50.814;8.530;2023-04-30T09:52:19;13.80;95.30
30174;DHT22;16985;50.814;8.530;2023-04-30T09:54:46;13.80;93.70
30174;DHT22;16985;50.814;8.530;2023-04-30T09:57:15;14.00;92.80
30174;DHT22;16985;50.814;8.530;2023-04-30T09:59:45;14.10;91.80
30174;DHT22;16985;50.814;8.530;2023-04-30T10:02:13;14.20;91.10
30174;DHT22;16985;50.814;8.530;2023-04-30T10:04:44;14.30;90.60
30174;DHT22;16985;50.814;8.530;2023-04-30T10:07:21;14.40;90.60
30174;DHT22;16985;50.814;8.530;2023-04-30T10:10:03;14.60;90.70
30174;DHT22;16985;50.814;8.530;2023-04-30T10:12:58;14.70;91.30
30174;DHT22;16985;50.814;8.530;2023-04-30T10:15:30;14.80;91.40
30174;DHT22;16985;50.814;8.530;2023-04-30T10:18:01;15.00;91.40
30174;DHT22;16985;50.814;8.530;2023-04-30T10:20:33;15.10;91.20
30174;DHT22;16985;50.814;8.530;2023-04-30T10:23:00;15.30;91.20
30174;DHT22;16985;50.814;8.530;2023-04-30T10:25:26;15.40;91.00
30174;DHT22;16985;50.814;8.530;2023-04-30T10:27:53;15.50;90.30
30174;DHT22;16985;50.814;8.530;2023-04-30T10:30:21;15.60;90.00
30174;DHT22;16985;50.814;8.530;2023-04-30T10:33:04;15.60;89.20
30174;DHT22;16985;50.814;8.530;2023-04-30T10:35:42;15.70;88.90
30174;DHT22;16985;50.814;8.530;2023-04-30T10:38:20;15.80;88.70
30174;DHT22;16985;50.814;8.530;2023-04-30T10:40:47;15.90;86.50
30174;DHT22;16985;50.814;8.530;2023-04-30T10:43:13;15.80;84.20
30174;DHT22;16985;50.814;8.530;2023-04-30T10:45:58;15.80;82.70
30174;DHT22;16985;50.814;8.530;2023-04-30T10:48:24;15.80;82.90
30174;DHT22;16985;50.814;8.530;2023-04-30T10:50:56;15.70;82.50
30174;DHT22;16985;50.814;8.530;2023-04-30T10:53:23;15.70;82.00
30174;DHT22;16985;50.814;8.530;2023-04-30T10:56:02;15.80;81.50
30174;DHT22;16985;50.814;8.530;2023-04-30T10:58:37;15.80;81.50
30174;DHT22;16985;50.814;8.530;2023-04-30T11:01:16;15.80;81.80
30174;DHT22;16985;50.814;8.530;2023-04-30T11:04:04;15.80;82.00
30174;DHT22;16985;50.814;8.530;2023-04-30T11:07:09;15.80;82.20
30174;DHT22;16985;50.814;8.530;2023-04-30T11:12:18;15.80;83.10
30174;DHT22;16985;50.814;8.530;2023-04-30T11:14:46;15.90;83.20
30174;DHT22;16985;50.814;8.530;2023-04-30T11:17:23;15.90;83.10
30174;DHT22;16985;50.814;8.530;2023-04-30T11:19:53;16.00;82.30
30174;DHT22;16985;50.814;8.530;2023-04-30T11:22:25;16.10;81.40
30174;DHT22;16985;50.814;8.530;2023-04-30T11:27:24;16.00;80.90
30174;DHT22;16985;50.814;8.530;2023-04-30T11:29:51;16.00;81.10
30174;DHT22;16985;50.814;8.530;2023-04-30T11:32:19;15.90;81.20
30174;DHT22;16985;50.814;8.530;2023-04-30T11:34:48;16.00;82.40
30174;DHT22;16985;50.814;8.530;2023-04-30T11:37:31;15.90;82.20
30174;DHT22;16985;50.814;8.530;2023-04-30T11:40:03;16.00;82.30
30174;DHT22;16985;50.814;8.530;2023-04-30T11:42:31;15.90;81.40
30174;DHT22;16985;50.814;8.530;2023-04-30T11:45:07;15.90;81.60
30174;DHT22;16985;50.814;8.530;2023-04-30T11:50:06;15.80;82.10
30174;DHT22;16985;50.814;8.530;2023-04-30T11:52:32;15.80;82.20
30174;DHT22;16985;50.814;8.530;2023-04-30T11:54:58;15.80;82.20
30174;DHT22;16985;50.814;8.530;2023-04-30T11:57:25;15.70;81.90
30174;DHT22;16985;50.814;8.530;2023-04-30T12:00:09;15.70;81.00
30174;DHT22;16985;50.814;8.530;2023-04-30T12:02:36;15.70;81.60
30174;DHT22;16985;50.814;8.530;2023-04-30T12:05:01;15.70;81.70
30174;DHT22;16985;50.814;8.530;2023-04-30T12:07:28;15.70;82.20
30174;DHT22;16985;50.814;8.530;2023-04-30T12:09:54;15.70;82.00
30174;DHT22;16985;50.814;8.530;2023-04-30T12:12:30;15.80;81.90
30174;DHT22;16985;50.814;8.530;2023-04-30T12:14:56;15.80;81.30
30174;DHT22;16985;50.814;8.530;2023-04-30T12:17:32;15.80;81.40
30174;DHT22;16985;50.814;8.530;2023-04-30T12:20:13;15.80;80.90
30174;DHT22;16985;50.814;8.530;2023-04-30T12:22:41;15.80;80.60
30174;DHT22;16985;50.814;8.530;2023-04-30T12:25:15;15.80;80.20
30174;DHT22;16985;50.814;8.530;2023-04-30T12:27:52;15.80;79.80
30174;DHT22;16985;50.814;8.530;2023-04-30T12:30:31;15.80;80.20
30174;DHT22;16985;50.814;8.530;2023-04-30T12:32:58;15.90;80.50
30174;DHT22;16985;50.814;8.530;2023-04-30T12:35:27;16.00;79.80
30174;DHT22;16985;50.814;8.530;2023-04-30T12:38:04;16.00;79.30
30174;DHT22;16985;50.814;8.530;2023-04-30T12:40:31;16.00;79.40
30174;DHT22;16985;50.814;8.530;2023-04-30T12:43:04;16.20;78.90
30174;DHT22;16985;50.814;8.530;2023-04-30T12:45:48;16.30;78.60
30174;DHT22;16985;50.814;8.530;2023-04-30T12:48:20;16.40;78.10
30174;DHT22;16985;50.814;8.530;2023-04-30T12:50:54;16.60;76.90
30174;DHT22;16985;50.814;8.530;2023-04-30T12:53:24;16.80;76.40
30174;DHT22;16985;50.814;8.530;2023-04-30T12:56:11;16.90;76.10
30174;DHT22;16985;50.814;8.530;2023-04-30T12:58:40;17.00;75.40
30174;DHT22;16985;50.814;8.530;2023-04-30T13:01:10;17.10;75.00
30174;DHT22;16985;50.814;8.530;2023-04-30T13:03:39;17.20;75.20
30174;DHT22;16985;50.814;8.530;2023-04-30T13:06:05;17.30;75.40
30174;DHT22;16985;50.814;8.530;2023-04-30T13:08:32;17.40;75.10
30174;DHT22;16985;50.814;8.530;2023-04-30T13:10:57;17.40;73.90
30174;DHT22;16985;50.814;8.530;2023-04-30T13:13:23;17.50;73.50
30174;DHT22;16985;50.814;8.530;2023-04-30T13:15:49;17.60;72.50
30174;DHT22;16985;50.814;8.530;2023-04-30T13:18:15;17.60;71.60
30174;DHT22;16985;50.814;8.530;2023-04-30T13:20:41;17.70;72.10
30174;DHT22;16985;50.814;8.530;2023-04-30T13:23:08;17.70;72.00
30174;DHT22;16985;50.814;8.530;2023-04-30T13:25:36;17.70;71.50
30174;DHT22;16985;50.814;8.530;2023-04-30T13:28:04;17.70;71.20
30174;DHT22;16985;50.814;8.530;2023-04-30T13:30:30;17.70;71.10
30174;DHT22;16985;50.814;8.530;2023-04-30T13:32:56;17.70;71.00
30174;DHT22;16985;50.814;8.530;2023-04-30T13:35:23;17.80;70.90
30174;DHT22;16985;50.814;8.530;2023-04-30T13:37:49;17.80;71.40
30174;DHT22;16985;50.814;8.530;2023-04-30T13:40:17;17.80;71.80
30174;DHT22;16985;50.814;8.530;2023-04-30T13:42:45;18.00;72.70
30174;DHT22;16985;50.814;8.530;2023-04-30T13:45:26;18.10;72.60
30174;DHT22;16985;50.814;8.530;2023-04-30T13:47:52;18.30;71.00
30174;DHT22;16985;50.814;8.530;2023-04-30T13:50:17;18.30;70.80
30174;DHT22;16985;50.814;8.530;2023-04-30T13:52:43;18.40;69.40
30174;DHT22;16985;50.814;8.530;2023-04-30T13:55:09;18.40;68.90
30174;DHT22;16985;50.814;8.530;2023-04-30T13:57:35;18.30;68.30
30174;DHT22;16985;50.814;8.530;2023-04-30T14:00:01;18.20;68.40
30174;DHT22;16985;50.814;8.530;2023-04-30T14:02:33;18.10;68.20
30174;DHT22;16985;50.814;8.530;2023-04-30T14:04:59;18.10;69.10
30174;DHT22;16985;50.814;8.530;2023-04-30T14:07:27;18.10;68.90
30174;DHT22;16985;50.814;8.530;2023-04-30T14:09:53;18.10;69.00
30174;DHT22;16985;50.814;8.530;2023-04-30T14:12:19;18.20;68.70
30174;DHT22;16985;50.814;8.530;2023-04-30T14:14:46;18.30;68.80
30174;DHT22;16985;50.814;8.530;2023-04-30T14:17:12;18.30;68.90
30174;DHT22;16985;50.814;8.530;2023-04-30T14:19:38;18.50;68.50
30174;DHT22;16985;50.814;8.530;2023-04-30T14:22:03;18.50;67.50
30174;DHT22;16985;50.814;8.530;2023-04-30T14:24:30;18.50;67.30
30174;DHT22;16985;50.814;8.530;2023-04-30T14:26:56;18.50;67.30
30174;DHT22;16985;50.814;8.530;2023-04-30T14:29:21;18.40;66.80
30174;DHT22;16985;50.814;8.530;2023-04-30T14:31:47;18.40;67.30
30174;DHT22;16985;50.814;8.530;2023-04-30T14:34:13;18.40;67.50
30174;DHT22;16985;50.814;8.530;2023-04-30T14:36:39;18.40;66.70
30174;DHT22;16985;50.814;8.530;2023-04-30T14:39:05;18.30;66.00
30174;DHT22;16985;50.814;8.530;2023-04-30T14:41:35;18.30;65.90
30174;DHT22;16985;50.814;8.530;2023-04-30T14:44:01;18.20;66.20
30174;DHT22;16985;50.814;8.530;2023-04-30T14:46:28;18.20;66.20
30174;DHT22;16985;50.814;8.530;2023-04-30T14:48:55;18.00;66.40
30174;DHT22;16985;50.814;8.530;2023-04-30T14:51:21;18.00;67.10
30174;DHT22;16985;50.814;8.530;2023-04-30T14:53:47;18.00;67.80
30174;DHT22;16985;50.814;8.530;2023-04-30T14:56:13;18.00;67.50
30174;DHT22;16985;50.814;8.530;2023-04-30T14:58:40;18.10;67.90
30174;DHT22;16985;50.814;8.530;2023-04-30T15:01:06;18.00;67.10
30174;DHT22;16985;50.814;8.530;2023-04-30T15:03:31;18.00;66.80
30174;DHT22;16985;50.814;8.530;2023-04-30T15:05:58;18.00;66.80
30174;DHT22;16985;50.814;8.530;2023-04-30T15:08:23;18.00;67.10
30174;DHT22;16985;50.814;8.530;2023-04-30T15:10:49;17.90;66.70
30174;DHT22;16985;50.814;8.530;2023-04-30T15:13:15;17.90;66.40
30174;DHT22;16985;50.814;8.530;2023-04-30T15:15:41;17.80;66.10
30174;DHT22;16985;50.814;8.530;2023-04-30T15:18:07;17.80;66.30
30174;DHT22;16985;50.814;8.530;2023-04-30T15:20:34;17.60;66.10
30174;DHT22;16985;50.814;8.530;2023-04-30T15:23:00;17.50;66.40
30174;DHT22;16985;50.814;8.530;2023-04-30T15:25:26;17.40;66.40
30174;DHT22;16985;50.814;8.530;2023-04-30T15:27:52;17.40;67.20
30174;DHT22;16985;50.814;8.530;2023-04-30T15:30:19;17.50;67.80
30174;DHT22;16985;50.814;8.530;2023-04-30T15:32:48;17.40;67.70
30174;DHT22;16985;50.814;8.530;2023-04-30T15:35:14;17.40;68.20
30174;DHT22;16985;50.814;8.530;2023-04-30T15:37:56;17.40;67.20
30174;DHT22;16985;50.814;8.530;2023-04-30T15:40:21;17.40;66.80
30174;DHT22;16985;50.814;8.530;2023-04-30T15:42:49;17.40;66.40
30174;DHT22;16985;50.814;8.530;2023-04-30T15:45:15;17.30;67.00
30174;DHT22;16985;50.814;8.530;2023-04-30T15:47:41;17.30;67.20
30174;DHT22;16985;50.814;8.530;2023-04-30T15:50:07;17.20;66.00
30174;DHT22;16985;50.814;8.530;2023-04-30T15:52:33;17.20;66.90
30174;DHT22;16985;50.814;8.530;2023-04-30T15:54:59;17.10;66.50
30174;DHT22;16985;50.814;8.530;2023-04-30T15:57:25;17.10;66.90
30174;DHT22;16985;50.814;8.530;2023-04-30T15:59:51;17.10;66.90
30174;DHT22;16985;50.814;8.530;2023-04-30T16:02:17;17.10;65.30
30174;DHT22;16985;50.814;8.530;2023-04-30T16:04:43;17.10;65.10
30174;DHT22;16985;50.814;8.530;2023-04-30T16:07:09;17.10;65.30